createdAt,value
2022-09-12T00:00:04.116Z,4.87
2022-09-12T00:05:12.084Z,4.40
2022-09-12T00:10:20.395Z,3.99
2022-09-12T00:15:28.668Z,5.34
2022-09-12T00:20:36.499Z,6.18
2022-09-12T00:25:44.851Z,5.99
2022-09-12T00:30:52.659Z,5.38
2022-09-12T00:36:01.308Z,3.96
2022-09-12T00:41:09.312Z,4.52
2022-09-12T00:46:17.526Z,4.82
2022-09-12T00:51:25.440Z,5.16
2022-09-12T00:56:33.871Z,6.56
2022-09-12T01:01:42.023Z,5.40
2022-09-12T01:06:50.474Z,7.17
2022-09-12T01:11:58.425Z,7.26
2022-09-12T01:17:09.767Z,8.18
2022-09-12T01:22:07.765Z,7.46
2022-09-12T01:27:16.363Z,6.29
2022-09-12T01:32:24.448Z,6.35
2022-09-12T01:37:32.925Z,5.95
2022-09-12T01:42:41.010Z,6.56
2022-09-12T01:47:49.461Z,6.18
2022-09-12T01:52:57.693Z,7.25
2022-09-12T01:58:06.265Z,8.54
2022-09-12T02:03:14.051Z,7.90
2022-09-12T02:08:22.844Z,5.19
2022-09-12T02:13:31.016Z,7.19
2022-09-12T02:18:39.271Z,6.24
2022-09-12T02:23:47.127Z,6.16
2022-09-12T02:28:55.240Z,4.96
2022-09-12T02:34:06.433Z,5.26
2022-09-12T02:39:04.579Z,4.93
2022-09-12T02:44:12.732Z,4.63
2022-09-12T02:49:21.130Z,7.33
2022-09-12T02:54:29.222Z,6.02
2022-09-12T02:59:37.427Z,7.18
2022-09-12T03:04:45.850Z,6.05
2022-09-12T03:09:54.482Z,7.14
2022-09-12T03:15:02.420Z,7.64
2022-09-12T03:20:10.611Z,7.56
2022-09-12T03:25:18.673Z,10.54
2022-09-12T03:30:27.118Z,8.06
2022-09-12T03:35:35.265Z,8.22
2022-09-12T03:40:43.372Z,8.91
2022-09-12T03:45:51.559Z,7.40
2022-09-12T03:51:00.176Z,9.52
2022-09-12T03:56:08.418Z,9.55
2022-09-12T04:01:16.771Z,8.14
2022-09-12T04:06:24.625Z,9.17
2022-09-12T04:11:33.447Z,9.33
2022-09-12T04:16:41.737Z,9.92
2022-09-12T04:21:50.397Z,11.16
2022-09-12T04:26:58.793Z,10.15
2022-09-12T04:32:07.468Z,9.48
2022-09-12T04:37:15.852Z,10.98
2022-09-12T04:42:24.138Z,11.27
2022-09-12T04:47:32.286Z,10.45
2022-09-12T04:52:41.007Z,11.01
2022-09-12T04:57:48.948Z,10.94
2022-09-12T05:02:57.470Z,10.31
2022-09-12T05:08:05.875Z,9.17
2022-09-12T05:13:14.258Z,7.59
2022-09-12T05:18:22.374Z,8.42
2022-09-12T05:23:30.836Z,7.80
2022-09-12T05:28:39.086Z,7.46
2022-09-12T05:33:47.733Z,6.55
2022-09-12T05:38:55.924Z,8.04
2022-09-12T05:44:04.102Z,7.56
2022-09-12T05:49:12.144Z,7.09
2022-09-12T05:54:20.927Z,7.73
2022-09-12T05:59:29.150Z,6.35
2022-09-12T06:04:38.649Z,6.76
2022-09-12T06:09:47.727Z,5.75
2022-09-12T06:14:56.149Z,6.02
2022-09-12T06:20:04.155Z,5.92
2022-09-12T06:25:13.067Z,5.47
2022-09-12T06:30:25.205Z,6.17
2022-09-12T06:35:29.694Z,4.47
2022-09-12T06:40:38.156Z,6.04
2022-09-12T06:45:47.052Z,4.82
2022-09-12T06:50:55.184Z,4.17
2022-09-12T06:56:03.533Z,4.32
2022-09-12T07:01:12.309Z,4.98
2022-09-12T07:06:20.630Z,4.90
2022-09-12T07:11:30.019Z,5.17
2022-09-12T07:16:38.749Z,4.69
2022-09-12T07:21:47.118Z,4.80
2022-09-12T07:26:56.273Z,5.13
2022-09-12T07:32:04.482Z,5.66
2022-09-12T07:37:13.528Z,4.19
2022-09-12T07:42:21.924Z,4.87
2022-09-12T07:47:30.657Z,6.19
2022-09-12T07:52:39.247Z,4.86
2022-09-12T07:57:47.856Z,5.40
2022-09-12T08:02:56.288Z,5.45
2022-09-12T08:08:04.918Z,6.56
2022-09-12T08:13:13.622Z,4.49
2022-09-12T08:18:22.767Z,5.21
2022-09-12T08:23:32.189Z,5.71
2022-09-12T08:28:41.446Z,8.15
2022-09-12T08:33:50.217Z,5.53
2022-09-12T08:38:59.962Z,5.95
2022-09-12T08:44:07.000Z,5.59
2022-09-12T08:49:15.804Z,6.12
2022-09-12T08:54:25.178Z,5.94
2022-09-12T08:59:34.258Z,5.64
2022-09-12T09:04:44.627Z,7.68
2022-09-12T09:09:43.969Z,9.35
2022-09-12T09:14:52.950Z,5.65
2022-09-12T09:20:02.567Z,6.31
2022-09-12T09:25:12.606Z,6.52
2022-09-12T09:30:11.573Z,6.97
2022-09-12T09:35:25.447Z,14.03
2022-09-12T09:40:25.298Z,10.86
2022-09-12T09:45:34.259Z,11.59
2022-09-12T09:50:44.766Z,15.94
2022-09-12T09:55:44.132Z,12.00
2022-09-12T10:00:56.619Z,9.59
2022-09-12T10:06:02.039Z,8.18
2022-09-12T10:11:11.412Z,8.18
2022-09-12T10:16:20.428Z,6.31
2022-09-12T10:21:28.797Z,7.32
2022-09-12T10:26:38.000Z,11.43
2022-09-12T10:31:47.135Z,9.78
2022-09-12T10:36:55.644Z,8.12
2022-09-12T10:42:04.896Z,8.73
2022-09-12T10:47:14.019Z,12.45
2022-09-12T10:52:23.027Z,9.42
2022-09-12T10:57:31.732Z,9.59
2022-09-12T11:02:41.050Z,7.32
2022-09-12T11:07:50.680Z,6.92
2022-09-12T11:12:59.918Z,6.43
2022-09-12T11:18:09.114Z,6.26
2022-09-12T11:23:19.010Z,6.59
2022-09-12T11:28:27.380Z,7.13
2022-09-12T11:33:40.859Z,6.34
2022-09-12T11:38:43.844Z,4.72
2022-09-12T11:43:53.655Z,6.25
2022-09-12T11:49:02.121Z,5.36
2022-09-12T11:54:11.307Z,5.61
2022-09-12T11:59:19.719Z,3.98
2022-09-12T12:04:28.396Z,6.33
2022-09-12T12:09:36.722Z,6.96
2022-09-12T12:14:45.430Z,8.65
2022-09-12T12:19:55.075Z,8.70
2022-09-12T12:25:04.247Z,9.38
2022-09-12T12:30:13.117Z,8.93
2022-09-12T12:35:23.368Z,7.67
2022-09-12T12:40:21.702Z,9.00
2022-09-12T12:45:30.449Z,4.83
2022-09-12T12:50:39.208Z,5.78
2022-09-12T12:55:47.878Z,7.04
2022-09-12T13:00:55.836Z,9.17
2022-09-12T13:06:04.410Z,9.18
2022-09-12T13:11:12.800Z,7.57
2022-09-12T13:16:21.923Z,6.78
2022-09-12T13:21:30.331Z,7.53
2022-09-12T13:26:39.841Z,5.37
2022-09-12T13:31:48.341Z,18.11
2022-09-12T13:36:57.228Z,8.52
2022-09-12T13:42:05.215Z,3.45
2022-09-12T13:47:14.224Z,5.37
2022-09-12T13:52:22.771Z,5.55
2022-09-12T13:57:31.307Z,4.41
2022-09-12T14:02:39.563Z,7.75
2022-09-12T14:07:49.450Z,4.82
2022-09-12T14:12:58.383Z,7.34
2022-09-12T14:18:07.212Z,5.85
2022-09-12T14:23:15.655Z,4.57
2022-09-12T14:28:24.420Z,5.30
2022-09-12T14:33:32.755Z,8.51
2022-09-12T14:38:41.529Z,7.01
2022-09-12T14:43:49.546Z,7.57
2022-09-12T14:48:57.869Z,5.40
2022-09-12T14:54:05.916Z,4.33
2022-09-12T14:59:15.126Z,4.14
2022-09-12T15:04:23.089Z,4.28
2022-09-12T15:09:31.621Z,3.43
2022-09-12T15:14:39.728Z,3.86
2022-09-12T15:19:48.042Z,3.60
2022-09-12T15:24:56.108Z,3.78
2022-09-12T15:30:05.168Z,3.99
2022-09-12T15:35:13.761Z,3.96
2022-09-12T15:40:22.884Z,3.88
2022-09-12T15:45:31.142Z,3.66
2022-09-12T15:50:39.288Z,4.85
2022-09-12T15:55:47.436Z,4.14
2022-09-12T16:00:55.571Z,4.74
2022-09-12T16:06:04.015Z,4.14
2022-09-12T16:11:12.497Z,3.18
2022-09-12T16:16:20.633Z,3.55
2022-09-12T16:21:28.933Z,4.89
2022-09-12T16:26:37.155Z,4.36
2022-09-12T16:31:45.266Z,5.76
2022-09-12T16:36:53.106Z,4.80
2022-09-12T16:42:02.004Z,5.42
2022-09-12T16:47:10.263Z,6.96
2022-09-12T16:52:18.630Z,6.22
2022-09-12T16:57:26.511Z,7.65
2022-09-12T17:02:34.838Z,6.66
2022-09-12T17:07:43.270Z,8.82
2022-09-12T17:12:52.007Z,10.18
2022-09-12T17:18:00.058Z,10.96
2022-09-12T17:23:09.868Z,11.00
2022-09-12T17:28:15.935Z,11.05
2022-09-12T17:33:24.515Z,10.53
2022-09-12T17:38:32.696Z,11.26
2022-09-12T17:43:41.136Z,11.81
2022-09-12T17:48:49.230Z,10.51
2022-09-12T17:53:58.236Z,8.18
2022-09-12T17:59:09.080Z,6.78
2022-09-12T18:04:07.592Z,8.32
2022-09-12T18:09:15.814Z,8.08
2022-09-12T18:14:24.129Z,6.31
2022-09-12T18:19:31.987Z,7.06
2022-09-12T18:24:40.377Z,6.64
2022-09-12T18:30:04.170Z,5.76
2022-09-12T18:34:56.663Z,5.09
2022-09-12T18:40:04.734Z,5.67
2022-09-12T18:45:13.628Z,5.42
2022-09-12T18:50:21.793Z,5.33
2022-09-12T18:55:30.302Z,4.90
2022-09-12T19:00:38.811Z,4.59
2022-09-12T19:05:47.041Z,7.11
2022-09-12T19:10:55.162Z,4.75
2022-09-12T19:16:03.516Z,4.11
2022-09-12T19:21:11.752Z,5.35
2022-09-12T19:26:20.443Z,6.25
2022-09-12T19:31:28.691Z,7.75
2022-09-12T19:36:46.611Z,7.78
2022-09-12T19:41:45.445Z,9.17
2022-09-12T19:46:53.767Z,8.32
2022-09-12T19:52:01.780Z,8.20
2022-09-12T19:57:10.579Z,6.11
2022-09-12T20:02:18.792Z,5.35
2022-09-12T20:07:26.810Z,6.58
2022-09-12T20:12:35.082Z,6.43
2022-09-12T20:17:43.457Z,6.08
2022-09-12T20:22:51.502Z,7.14
2022-09-12T20:28:00.344Z,5.00
2022-09-12T20:33:08.510Z,4.87
2022-09-12T20:38:16.966Z,6.32
2022-09-12T20:43:25.379Z,8.34
2022-09-12T20:48:33.626Z,7.14
2022-09-12T20:53:41.627Z,5.72
2022-09-12T20:58:50.168Z,4.86
2022-09-12T21:03:58.689Z,5.42
2022-09-12T21:09:07.305Z,5.92
2022-09-12T21:14:15.481Z,4.22
2022-09-12T21:19:24.250Z,6.69
2022-09-12T21:24:32.264Z,6.99
2022-09-12T21:29:40.704Z,5.59
2022-09-12T21:34:48.889Z,6.13
2022-09-12T21:39:57.034Z,6.47
2022-09-12T21:45:04.844Z,6.50
2022-09-12T21:50:13.118Z,7.09
2022-09-12T21:55:21.251Z,7.33
2022-09-12T22:00:29.412Z,8.47
2022-09-12T22:05:37.381Z,7.39
2022-09-12T22:10:45.739Z,7.93
2022-09-12T22:15:53.709Z,7.03
2022-09-12T22:21:01.939Z,6.83
2022-09-12T22:26:09.876Z,6.06
2022-09-12T22:31:18.249Z,5.90
2022-09-12T22:36:30.943Z,5.75
2022-09-12T22:41:34.737Z,5.93
2022-09-12T22:46:42.775Z,4.46
2022-09-12T22:51:51.236Z,5.03
2022-09-12T22:56:59.220Z,5.77
2022-09-12T23:02:07.275Z,6.84
2022-09-12T23:07:15.359Z,7.59
2022-09-12T23:12:23.613Z,8.60
2022-09-12T23:17:33.225Z,6.92
2022-09-12T23:27:46.723Z,5.07
2022-09-12T23:32:55.092Z,5.46
2022-09-12T23:38:03.470Z,4.08
2022-09-12T23:43:11.364Z,5.13
2022-09-12T23:48:20.129Z,6.21
2022-09-12T23:53:27.745Z,5.25
2022-09-12T23:58:35.799Z,7.50
